• Join FlightAware (Why Join?)
  • Login
  • US Flag 
04:04PM EDT


 

Airport Tracker/Info


-or-


 

Live Flight TrackerFlight Track Log ✈ N2158U ✈ 09-Jun-2014 ✈ KISP - KSWF

Flight Track Log - Related Links

Times and Time Zones

All times are in EDT time to prevent confusion due to time zone crossing. See the N2158U flight status page for this flight to view local times or setup timezone preferences in your user account.

Time Position Orientation Groundspeed Altitude Reporting Facility
EDT Latitude Longitude Course Direction KTS MPH feet Rate Location/Type
07:52AM 40.8333 -73.1333 345° North 172 198 2,300  Level New York TRACON
07:53AM 40.8833 -73.1333 360° North 202 232 4,400 2,100 Climbing New York TRACON
07:53AM 40.9061 -73.1283 North 195 224 5,500 1,680 Climbing Boston Center
07:54AM 40.9706 -73.1275 North 222 255 7,000 720 Climbing Boston Center
07:55AM 41.0419 -73.1269 360° North 247 284 7,000  Level Boston Center
07:56AM 41.1175 -73.1242 North 265 305 7,000  Level Boston Center
07:57AM 41.1974 -73.1339 345° North  Level FlightAware Approximate
07:57AM 41.2072 -73.1333 356° North 266 306 7,000  Level Boston Center
07:58AM 41.2808 -73.1764 336° Northwest 273 314 7,000  Level Boston Center
07:59AM 41.3511 -73.2042 343° North 267 307 7,000  Level Boston Center
08:00AM 41.4172 -73.2328 342° North 254 292 7,000  Level Boston Center
08:01AM 41.4825 -73.2594 343° North 248 285 7,000  Level Boston Center
08:02AM 41.5525 -73.2894 342° North 247 284 7,000  Level Boston Center
08:03AM 41.6222 -73.3183 343° North 256 295 7,000  Level Boston Center
08:04AM 41.6953 -73.3500 342° North 272 313 7,000 -120 Level Boston Center
08:05AM 41.7692 -73.3817 342° North 275 316 6,800 -540 Descending Boston Center
08:06AM 41.8450 -73.4144 342° North 270 311 6,000 -720 Descending Boston Center
08:07AM 41.8928 -73.4617 324° Northwest 240 276 5,400 -540 Descending Boston Center
08:08AM 41.8569 -73.5281 234° Southwest 223 257 5,000 -240 Descending Boston Center
08:09AM 41.8147 -73.5881 227° Southwest 222 255 5,000  Level Boston Center
08:10AM 41.7697 -73.6542 228° Southwest 222 255 5,000 -300 Level Boston Center
08:11AM 41.7281 -73.7150 227° Southwest 222 255 4,500 -540 Descending Boston Center
08:12AM 41.6886 -73.7753 229° Southwest 218 251 4,000 -300 Descending Boston Center
08:13AM 41.6439 -73.8442 229° Southwest 243 280 4,000  Level Boston Center
08:15AM 41.6042 -73.9306 238° Southwest 254 292 4,000  Level Boston Center
08:16AM 41.5778 -74.0142 247° West 251 289 4,000  Level Boston Center
08:17AM 41.5681 -74.1056 262° West 250 288 4,000  Level Boston Center
08:18AM 41.5558 -74.2039 261° West 251 289 4,000 -300 Level Boston Center
08:19AM 41.5308 -74.2822 247° West 228 262 3,400 -840 Descending Boston Center
08:20AM 41.4869 -74.3022 199° South 173 199 2,400 -840 Descending Boston Center
08:21AM 41.4842 -74.2456 94° East 157 181 1,700 -420 Descending Boston Center
08:22AM 41.4903 -74.2000 80° East 131 151 1,600 -300 Descending Boston Center
08:23AM 41.4958 -74.1653 78° East 96 110 1,100 -540 Descending Boston Center
08:24AM 41.5011 -74.1317 78° East 95 109 600 -540 Descending Boston Center